Extreme hitte van: 06-08-2020 07:00 tot: 08-08-2020 05:00 waarschuwing voor: Extreme hitte niveau: Geel info button

Onweer radar Meer informatie blitzortung!


Regen radar Meer informatie rain snow radar



METAR rapporten vliegvelden

   
EHRD - Rotterdam
Gewijzigd: 06-08-2020 11:25
Gedeeltelijk bewolkt  
Gedeeltelijk bewolkt  
   Wind: varieert 3 km/h
Wind: varieert 3 km/h
Temperatuur: 24°C
Dauwpunt: 16°C
Vochtigheid: 61%
Barometer: 1019 hPa
Bewolking: Partly Cloudy
Zicht: meer dan 10 km
Bewolking: Gedeeltelijk bewolkt ft
EHRD 060925Z AUTO VRB03KT 9999 NSC 24/16 Q1019 NOSIG
EBAW - Antwerpen
Gewijzigd: 06-08-2020 11:20
Helder  
Helder  
   Wind: ZO 4 km/h
Wind: ZO 4 km/h
Temperatuur: 26°C
Dauwpunt: 10°C
Vochtigheid: 37%
Barometer: 1019 hPa
Zicht: meer dan 10 km
Bewolking: Helder ft
EBAW 060920Z 13004KT 090V160 CAVOK 26/10 Q1019 NOSIG
EHAM - Amsterdam
Gewijzigd: 06-08-2020 11:25
Helder  
Helder  
   Wind: ZZW 6 km/h
Wind: ZZW 6 km/h
Temperatuur: 24°C
Dauwpunt: 15°C
Vochtigheid: 57%
Barometer: 1019 hPa
Zicht: meer dan 10 km
Bewolking: Helder ft
EHAM 060925Z 20006KT 150V250 CAVOK 24/15 Q1019 NOSIG
EHEH - Eindhoven
Gewijzigd: 06-08-2020 11:25
Bewolking  
Bewolking  
   Wind: ZZW 7 km/h
Wind: ZZW 7 km/h
Temperatuur: 28°C
Dauwpunt: 10°C
Vochtigheid: 32%
Barometer: 1019 hPa
Bewolking: Overcast
Zicht: meer dan 10 km
Bewolking: Bewolking 36000 ft
EHEH 060925Z AUTO 20007KT 140V270 9999 OVC360 28/10 Q1019 BLU NOSIG
  

Script ontwikkeld door  Saratoga-weather.org Aangepast voor de template door  Weerstation Leuven

U vindt ons ook hier:

Het Weer Aktueel

Apparatuur in gebruik:

Weerstation
Davis VP2

Weerprogramma
Cumulus

Weercomputer
Pipo X9 with Windows 10

Davis VP2

Cumulus

Pipo X9 with Windows 10